Pagrindinis puslapis
METAR-TAF:

METAR-TAF

Oro uostai :

Gillespie County Airport

Fredericksburg, Teksasas, Jungtinės Amerikos Valstijos

platuma: 30-14-37N, ilguma: 098-54-34W, Aukštis: 517 m

Dabartinis oras

Ataskaita buvo paskelbta 33 minutes, ne 04:15 UTC
Vėjas 5 kt iš Pietų/Pietryčių
Temperatūra 21°C
Drėgmė 83%
Slėgis 1014 hPa
Matomumas: 16.1 km
Apsiniaukę ne aukštis 1700 ft

METAR: KT82 170415Z AUTO 15005KT 10SM OVC017 21/18 A2995 RMK AO2 T02120176

Laikas: 23:48 (04:48 UTC)


TAF: trūkstamas

Orai ataskaitas ir orų prognozės (METAR, TAF).

turimą stotys yra geltonos ir raudonos taškus žemėlapyje.

Perkelti pele per norėdami pamatyti stoties vardą.

Tada spustelėkite, norėdami matyti oro stebėjimo ir prognozės.

Norėdami pakeisti žemėlapį: spustelėkite ant žalios mygtukų su juodo kryžiaus žemyn,; žalią mygtuką su brūkšneliu, jei norite nutolinti; arba žalių rodyklių gretimoms žemėlapius.


METAR-TAF: